Pagrindinis puslapis
METAR-TAF:

METAR-TAF

Oro uostai :

Zonguldakas, Turkija

platuma: 41-27N, ilguma: 031-48E, Aukštis: 136 m

Dabartinis oras

Ataskaita buvo paskelbta 16 valandos ir 16 minutes, ne 13:50 UTC
Vėjas 10 kt iš Šiaurės
Temperatūra 11°C
Drėgmė 58%
Slėgis 1018 hPa
Matomumas 10 km arba daugiau
nėra debesų žemiau 1500 m ir nėra kamuolinių lietaus debesų

METAR: LTAS 251350Z 35010KT CAVOK 11/03 Q1018

Laikas: 09:06 (06:06 UTC)

Prognozė

Ataskaita buvo paskelbta 1 valandą ir 26 minutes, ne 04:40 UTC
Prognozė galioja nuo 26 metu 06 UTC su 26 metu 15 UTC
Vėjas 2 kt nuo kintamojo kryptimis
Matomumas 10 km arba daugiau
nėra debesų žemiau 1500 m ir nėra kamuolinių lietaus debesų

TAF: LTAS 260440Z 2606/2615 VRB02KT CAVOK

Orai ataskaitas ir orų prognozės (METAR, TAF).

turimą stotys yra geltonos ir raudonos taškus žemėlapyje.

Perkelti pele per norėdami pamatyti stoties vardą.

Tada spustelėkite, norėdami matyti oro stebėjimo ir prognozės.

Norėdami pakeisti žemėlapį: spustelėkite ant žalios mygtukų su juodo kryžiaus žemyn,; žalią mygtuką su brūkšneliu, jei norite nutolinti; arba žalių rodyklių gretimoms žemėlapius.


METAR-TAF: